sensor_id;sensor_type;location;lat;lon;timestamp;P1;durP1;ratioP1;P2;durP2;ratioP2
22234;SDS011;11286;45.596;5.284;2022-07-10T00:01:50;3.30;;;2.88;;
22234;SDS011;11286;45.596;5.284;2022-07-10T00:04:16;4.75;;;3.05;;
22234;SDS011;11286;45.596;5.284;2022-07-10T00:06:43;3.55;;;2.58;;
22234;SDS011;11286;45.596;5.284;2022-07-10T00:09:11;5.40;;;2.83;;
22234;SDS011;11286;45.596;5.284;2022-07-10T00:11:38;3.58;;;3.03;;
22234;SDS011;11286;45.596;5.284;2022-07-10T00:14:04;4.75;;;2.92;;
22234;SDS011;11286;45.596;5.284;2022-07-10T00:16:29;5.28;;;3.00;;
22234;SDS011;11286;45.596;5.284;2022-07-10T00:18:55;3.47;;;3.17;;
22234;SDS011;11286;45.596;5.284;2022-07-10T00:21:21;5.13;;;3.00;;
22234;SDS011;11286;45.596;5.284;2022-07-10T00:23:46;4.22;;;3.25;;
22234;SDS011;11286;45.596;5.284;2022-07-10T00:26:12;4.50;;;3.40;;
22234;SDS011;11286;45.596;5.284;2022-07-10T00:28:37;3.50;;;3.20;;
22234;SDS011;11286;45.596;5.284;2022-07-10T00:31:03;4.75;;;3.60;;
22234;SDS011;11286;45.596;5.284;2022-07-10T00:33:29;4.40;;;3.22;;
22234;SDS011;11286;45.596;5.284;2022-07-10T00:35:57;5.20;;;3.20;;
22234;SDS011;11286;45.596;5.284;2022-07-10T00:38:23;5.25;;;3.40;;
22234;SDS011;11286;45.596;5.284;2022-07-10T00:40:48;4.07;;;3.15;;
22234;SDS011;11286;45.596;5.284;2022-07-10T00:43:14;3.85;;;3.05;;
22234;SDS011;11286;45.596;5.284;2022-07-10T00:45:40;7.57;;;3.40;;
22234;SDS011;11286;45.596;5.284;2022-07-10T00:48:05;3.50;;;3.05;;
22234;SDS011;11286;45.596;5.284;2022-07-10T00:50:31;4.30;;;3.13;;
22234;SDS011;11286;45.596;5.284;2022-07-10T00:52:58;5.72;;;2.92;;
22234;SDS011;11286;45.596;5.284;2022-07-10T00:55:24;4.93;;;2.90;;
22234;SDS011;11286;45.596;5.284;2022-07-10T00:57:50;6.63;;;3.13;;
22234;SDS011;11286;45.596;5.284;2022-07-10T01:00:16;4.20;;;2.78;;
22234;SDS011;11286;45.596;5.284;2022-07-10T01:02:43;3.53;;;2.75;;
22234;SDS011;11286;45.596;5.284;2022-07-10T01:05:10;5.20;;;2.63;;
22234;SDS011;11286;45.596;5.284;2022-07-10T01:07:35;6.50;;;2.97;;
22234;SDS011;11286;45.596;5.284;2022-07-10T01:10:03;4.07;;;2.92;;
22234;SDS011;11286;45.596;5.284;2022-07-10T01:12:29;3.67;;;2.90;;
22234;SDS011;11286;45.596;5.284;2022-07-10T01:14:56;4.15;;;2.83;;
22234;SDS011;11286;45.596;5.284;2022-07-10T01:17:23;6.22;;;2.90;;
22234;SDS011;11286;45.596;5.284;2022-07-10T01:19:50;5.90;;;3.10;;
22234;SDS011;11286;45.596;5.284;2022-07-10T01:22:16;3.00;;;2.65;;
22234;SDS011;11286;45.596;5.284;2022-07-10T01:24:42;3.15;;;2.85;;
22234;SDS011;11286;45.596;5.284;2022-07-10T01:27:08;4.13;;;3.53;;
22234;SDS011;11286;45.596;5.284;2022-07-10T01:29:34;3.72;;;2.90;;
22234;SDS011;11286;45.596;5.284;2022-07-10T01:32:01;5.05;;;3.50;;
22234;SDS011;11286;45.596;5.284;2022-07-10T01:34:27;3.85;;;3.00;;
22234;SDS011;11286;45.596;5.284;2022-07-10T01:36:53;3.33;;;3.03;;
22234;SDS011;11286;45.596;5.284;2022-07-10T01:39:19;3.60;;;3.30;;
22234;SDS011;11286;45.596;5.284;2022-07-10T01:41:44;8.70;;;3.15;;
22234;SDS011;11286;45.596;5.284;2022-07-10T01:44:10;5.25;;;3.17;;
22234;SDS011;11286;45.596;5.284;2022-07-10T01:46:42;4.47;;;3.28;;
22234;SDS011;11286;45.596;5.284;2022-07-10T01:49:08;4.90;;;3.10;;
22234;SDS011;11286;45.596;5.284;2022-07-10T01:51:34;4.45;;;3.35;;
22234;SDS011;11286;45.596;5.284;2022-07-10T01:54:00;4.05;;;3.30;;
22234;SDS011;11286;45.596;5.284;2022-07-10T01:56:25;4.68;;;3.30;;
22234;SDS011;11286;45.596;5.284;2022-07-10T01:58:51;4.82;;;3.70;;
22234;SDS011;11286;45.596;5.284;2022-07-10T02:01:16;5.47;;;3.58;;
22234;SDS011;11286;45.596;5.284;2022-07-10T02:03:42;5.82;;;3.45;;
22234;SDS011;11286;45.596;5.284;2022-07-10T02:06:26;5.80;;;3.33;;
22234;SDS011;11286;45.596;5.284;2022-07-10T02:08:52;4.63;;;3.55;;
22234;SDS011;11286;45.596;5.284;2022-07-10T02:11:17;5.18;;;3.55;;
22234;SDS011;11286;45.596;5.284;2022-07-10T02:13:43;3.92;;;3.42;;
22234;SDS011;11286;45.596;5.284;2022-07-10T02:16:09;3.83;;;3.40;;
22234;SDS011;11286;45.596;5.284;2022-07-10T02:18:35;5.00;;;3.60;;
22234;SDS011;11286;45.596;5.284;2022-07-10T02:21:01;5.28;;;3.42;;
22234;SDS011;11286;45.596;5.284;2022-07-10T02:23:27;6.75;;;3.60;;
22234;SDS011;11286;45.596;5.284;2022-07-10T02:25:53;5.70;;;3.70;;
22234;SDS011;11286;45.596;5.284;2022-07-10T02:28:19;5.18;;;3.33;;
22234;SDS011;11286;45.596;5.284;2022-07-10T02:30:44;4.43;;;3.65;;
22234;SDS011;11286;45.596;5.284;2022-07-10T02:33:10;3.72;;;3.42;;
22234;SDS011;11286;45.596;5.284;2022-07-10T02:35:35;3.95;;;3.25;;
22234;SDS011;11286;45.596;5.284;2022-07-10T02:38:01;6.28;;;3.75;;
22234;SDS011;11286;45.596;5.284;2022-07-10T02:40:27;6.85;;;3.78;;
22234;SDS011;11286;45.596;5.284;2022-07-10T02:42:52;3.83;;;3.40;;
22234;SDS011;11286;45.596;5.284;2022-07-10T02:45:18;6.82;;;3.63;;
22234;SDS011;11286;45.596;5.284;2022-07-10T02:47:43;5.55;;;3.58;;
22234;SDS011;11286;45.596;5.284;2022-07-10T02:50:09;3.60;;;3.28;;
22234;SDS011;11286;45.596;5.284;2022-07-10T02:52:35;7.22;;;3.28;;
22234;SDS011;11286;45.596;5.284;2022-07-10T02:55:00;5.00;;;3.85;;
22234;SDS011;11286;45.596;5.284;2022-07-10T02:57:26;8.00;;;3.88;;
22234;SDS011;11286;45.596;5.284;2022-07-10T02:59:52;3.50;;;3.13;;
22234;SDS011;11286;45.596;5.284;2022-07-10T03:02:18;4.05;;;3.65;;
22234;SDS011;11286;45.596;5.284;2022-07-10T03:04:44;5.82;;;3.60;;
22234;SDS011;11286;45.596;5.284;2022-07-10T03:07:09;3.83;;;3.40;;
22234;SDS011;11286;45.596;5.284;2022-07-10T03:09:35;7.30;;;3.58;;
22234;SDS011;11286;45.596;5.284;2022-07-10T03:12:01;3.30;;;3.00;;
22234;SDS011;11286;45.596;5.284;2022-07-10T03:14:26;4.35;;;3.33;;
22234;SDS011;11286;45.596;5.284;2022-07-10T03:16:52;4.60;;;3.63;;
22234;SDS011;11286;45.596;5.284;2022-07-10T03:19:18;4.25;;;3.85;;
22234;SDS011;11286;45.596;5.284;2022-07-10T03:21:43;4.68;;;3.38;;
22234;SDS011;11286;45.596;5.284;2022-07-10T03:24:10;8.70;;;3.50;;
22234;SDS011;11286;45.596;5.284;2022-07-10T03:26:36;6.10;;;3.45;;
22234;SDS011;11286;45.596;5.284;2022-07-10T03:29:02;6.38;;;3.65;;
22234;SDS011;11286;45.596;5.284;2022-07-10T03:31:27;4.70;;;3.38;;
22234;SDS011;11286;45.596;5.284;2022-07-10T03:33:53;4.15;;;3.40;;
22234;SDS011;11286;45.596;5.284;2022-07-10T03:36:19;4.22;;;3.83;;
22234;SDS011;11286;45.596;5.284;2022-07-10T03:38:44;5.55;;;3.15;;
22234;SDS011;11286;45.596;5.284;2022-07-10T03:41:11;3.60;;;3.30;;
22234;SDS011;11286;45.596;5.284;2022-07-10T03:43:37;3.55;;;3.20;;
22234;SDS011;11286;45.596;5.284;2022-07-10T03:46:03;6.80;;;3.83;;
22234;SDS011;11286;45.596;5.284;2022-07-10T03:48:29;5.75;;;3.65;;
22234;SDS011;11286;45.596;5.284;2022-07-10T03:50:54;5.20;;;3.78;;
22234;SDS011;11286;45.596;5.284;2022-07-10T03:53:20;4.45;;;3.45;;
22234;SDS011;11286;45.596;5.284;2022-07-10T03:55:45;4.40;;;3.80;;
22234;SDS011;11286;45.596;5.284;2022-07-10T03:58:11;4.30;;;3.45;;
22234;SDS011;11286;45.596;5.284;2022-07-10T04:00:37;4.93;;;3.45;;
22234;SDS011;11286;45.596;5.284;2022-07-10T04:03:06;5.32;;;3.80;;
22234;SDS011;11286;45.596;5.284;2022-07-10T04:05:33;4.22;;;3.83;;
22234;SDS011;11286;45.596;5.284;2022-07-10T04:07:59;3.72;;;3.35;;
22234;SDS011;11286;45.596;5.284;2022-07-10T04:10:26;4.68;;;3.58;;
22234;SDS011;11286;45.596;5.284;2022-07-10T04:12:53;4.15;;;3.63;;
22234;SDS011;11286;45.596;5.284;2022-07-10T04:15:19;3.92;;;3.63;;
22234;SDS011;11286;45.596;5.284;2022-07-10T04:17:46;4.25;;;3.70;;
22234;SDS011;11286;45.596;5.284;2022-07-10T04:20:15;4.50;;;3.80;;
22234;SDS011;11286;45.596;5.284;2022-07-10T04:22:42;3.78;;;3.45;;
22234;SDS011;11286;45.596;5.284;2022-07-10T04:25:08;4.03;;;3.50;;
22234;SDS011;11286;45.596;5.284;2022-07-10T04:27:34;5.90;;;3.83;;
22234;SDS011;11286;45.596;5.284;2022-07-10T04:30:00;7.00;;;3.60;;
22234;SDS011;11286;45.596;5.284;2022-07-10T04:32:26;4.00;;;3.60;;
22234;SDS011;11286;45.596;5.284;2022-07-10T04:34:53;3.60;;;3.30;;
22234;SDS011;11286;45.596;5.284;2022-07-10T04:37:19;11.02;;;3.90;;
22234;SDS011;11286;45.596;5.284;2022-07-10T04:39:44;4.43;;;3.47;;
22234;SDS011;11286;45.596;5.284;2022-07-10T04:42:10;5.10;;;3.70;;
22234;SDS011;11286;45.596;5.284;2022-07-10T04:44:35;4.20;;;3.72;;
22234;SDS011;11286;45.596;5.284;2022-07-10T04:47:02;6.47;;;4.13;;
22234;SDS011;11286;45.596;5.284;2022-07-10T04:49:28;8.90;;;3.63;;
22234;SDS011;11286;45.596;5.284;2022-07-10T04:51:54;6.30;;;3.80;;
22234;SDS011;11286;45.596;5.284;2022-07-10T04:54:21;4.60;;;3.58;;
22234;SDS011;11286;45.596;5.284;2022-07-10T04:56:47;3.75;;;3.45;;
22234;SDS011;11286;45.596;5.284;2022-07-10T04:59:13;6.28;;;3.30;;
22234;SDS011;11286;45.596;5.284;2022-07-10T05:01:39;5.80;;;3.50;;
22234;SDS011;11286;45.596;5.284;2022-07-10T05:04:05;4.30;;;3.70;;
22234;SDS011;11286;45.596;5.284;2022-07-10T05:06:30;5.65;;;3.60;;
22234;SDS011;11286;45.596;5.284;2022-07-10T05:08:56;5.47;;;4.18;;
22234;SDS011;11286;45.596;5.284;2022-07-10T05:11:22;5.38;;;3.53;;
22234;SDS011;11286;45.596;5.284;2022-07-10T05:13:48;7.18;;;3.72;;
22234;SDS011;11286;45.596;5.284;2022-07-10T05:16:14;4.45;;;3.72;;
22234;SDS011;11286;45.596;5.284;2022-07-10T05:18:41;4.80;;;3.70;;
22234;SDS011;11286;45.596;5.284;2022-07-10T05:21:06;4.50;;;3.08;;
22234;SDS011;11286;45.596;5.284;2022-07-10T05:23:33;5.63;;;3.05;;
22234;SDS011;11286;45.596;5.284;2022-07-10T05:25:59;4.82;;;3.10;;
22234;SDS011;11286;45.596;5.284;2022-07-10T05:28:24;5.63;;;3.35;;
22234;SDS011;11286;45.596;5.284;2022-07-10T05:30:50;4.05;;;3.13;;
22234;SDS011;11286;45.596;5.284;2022-07-10T05:33:16;3.80;;;2.92;;
22234;SDS011;11286;45.596;5.284;2022-07-10T05:35:42;2.85;;;2.65;;
22234;SDS011;11286;45.596;5.284;2022-07-10T05:38:08;4.38;;;3.10;;
22234;SDS011;11286;45.596;5.284;2022-07-10T05:40:33;3.22;;;2.72;;
22234;SDS011;11286;45.596;5.284;2022-07-10T05:42:59;4.75;;;2.97;;
22234;SDS011;11286;45.596;5.284;2022-07-10T05:45:25;3.25;;;2.88;;
22234;SDS011;11286;45.596;5.284;2022-07-10T05:47:51;5.10;;;2.80;;
22234;SDS011;11286;45.596;5.284;2022-07-10T05:50:16;4.90;;;3.38;;
22234;SDS011;11286;45.596;5.284;2022-07-10T05:52:42;4.05;;;3.00;;
22234;SDS011;11286;45.596;5.284;2022-07-10T05:55:08;3.67;;;3.33;;
22234;SDS011;11286;45.596;5.284;2022-07-10T05:57:34;5.15;;;2.95;;
22234;SDS011;11286;45.596;5.284;2022-07-10T06:00:00;5.47;;;2.90;;
22234;SDS011;11286;45.596;5.284;2022-07-10T06:02:28;5.15;;;2.70;;
22234;SDS011;11286;45.596;5.284;2022-07-10T06:04:54;6.28;;;2.55;;
22234;SDS011;11286;45.596;5.284;2022-07-10T06:07:19;3.20;;;2.80;;
22234;SDS011;11286;45.596;5.284;2022-07-10T06:09:45;3.95;;;2.90;;
22234;SDS011;11286;45.596;5.284;2022-07-10T06:12:10;5.72;;;2.90;;
22234;SDS011;11286;45.596;5.284;2022-07-10T06:14:36;3.80;;;2.80;;
22234;SDS011;11286;45.596;5.284;2022-07-10T06:17:02;3.95;;;3.20;;
22234;SDS011;11286;45.596;5.284;2022-07-10T06:19:27;9.20;;;3.30;;
22234;SDS011;11286;45.596;5.284;2022-07-10T06:21:53;3.63;;;2.92;;
22234;SDS011;11286;45.596;5.284;2022-07-10T06:24:38;4.35;;;2.80;;
22234;SDS011;11286;45.596;5.284;2022-07-10T06:27:03;3.50;;;2.97;;
22234;SDS011;11286;45.596;5.284;2022-07-10T06:29:29;5.60;;;3.05;;
22234;SDS011;11286;45.596;5.284;2022-07-10T06:31:55;4.07;;;2.63;;
22234;SDS011;11286;45.596;5.284;2022-07-10T06:34:21;5.05;;;3.08;;
22234;SDS011;11286;45.596;5.284;2022-07-10T06:36:47;3.78;;;3.00;;
22234;SDS011;11286;45.596;5.284;2022-07-10T06:39:12;3.25;;;2.95;;
22234;SDS011;11286;45.596;5.284;2022-07-10T06:41:38;5.63;;;3.40;;
22234;SDS011;11286;45.596;5.284;2022-07-10T06:44:04;5.97;;;3.38;;
22234;SDS011;11286;45.596;5.284;2022-07-10T06:46:30;5.80;;;3.10;;
22234;SDS011;11286;45.596;5.284;2022-07-10T06:48:56;5.68;;;3.20;;
22234;SDS011;11286;45.596;5.284;2022-07-10T06:51:22;3.47;;;2.90;;
22234;SDS011;11286;45.596;5.284;2022-07-10T06:53:48;4.70;;;3.30;;
22234;SDS011;11286;45.596;5.284;2022-07-10T06:56:13;5.13;;;3.53;;
22234;SDS011;11286;45.596;5.284;2022-07-10T06:58:41;3.92;;;3.30;;
22234;SDS011;11286;45.596;5.284;2022-07-10T07:01:07;3.08;;;2.70;;
22234;SDS011;11286;45.596;5.284;2022-07-10T07:03:33;3.50;;;3.05;;
22234;SDS011;11286;45.596;5.284;2022-07-10T07:05:58;4.40;;;3.15;;
22234;SDS011;11286;45.596;5.284;2022-07-10T07:08:24;3.53;;;2.83;;
22234;SDS011;11286;45.596;5.284;2022-07-10T07:10:50;3.45;;;3.13;;
22234;SDS011;11286;45.596;5.284;2022-07-10T07:13:15;3.55;;;3.00;;
22234;SDS011;11286;45.596;5.284;2022-07-10T07:15:41;3.78;;;2.90;;
22234;SDS011;11286;45.596;5.284;2022-07-10T07:18:11;5.78;;;2.97;;
22234;SDS011;11286;45.596;5.284;2022-07-10T07:20:37;3.90;;;3.05;;
22234;SDS011;11286;45.596;5.284;2022-07-10T07:23:22;4.40;;;3.20;;
22234;SDS011;11286;45.596;5.284;2022-07-10T07:25:49;4.60;;;2.97;;
22234;SDS011;11286;45.596;5.284;2022-07-10T07:28:15;6.53;;;3.30;;
22234;SDS011;11286;45.596;5.284;2022-07-10T07:30:41;3.35;;;3.05;;
22234;SDS011;11286;45.596;5.284;2022-07-10T07:33:08;5.53;;;3.50;;
22234;SDS011;11286;45.596;5.284;2022-07-10T07:35:33;3.78;;;3.05;;
22234;SDS011;11286;45.596;5.284;2022-07-10T07:38:00;4.57;;;3.28;;
22234;SDS011;11286;45.596;5.284;2022-07-10T07:40:27;6.13;;;3.30;;
22234;SDS011;11286;45.596;5.284;2022-07-10T07:42:53;6.63;;;3.10;;
22234;SDS011;11286;45.596;5.284;2022-07-10T07:45:20;3.38;;;2.95;;
22234;SDS011;11286;45.596;5.284;2022-07-10T07:47:53;4.13;;;3.50;;
22234;SDS011;11286;45.596;5.284;2022-07-10T07:50:25;4.13;;;3.00;;
22234;SDS011;11286;45.596;5.284;2022-07-10T07:52:53;4.35;;;3.30;;
22234;SDS011;11286;45.596;5.284;2022-07-10T07:55:20;3.72;;;3.03;;
22234;SDS011;11286;45.596;5.284;2022-07-10T07:57:46;3.38;;;3.00;;
22234;SDS011;11286;45.596;5.284;2022-07-10T08:00:13;4.82;;;3.30;;
22234;SDS011;11286;45.596;5.284;2022-07-10T08:02:42;6.05;;;3.38;;
22234;SDS011;11286;45.596;5.284;2022-07-10T08:05:08;4.90;;;3.10;;
22234;SDS011;11286;45.596;5.284;2022-07-10T08:07:43;3.45;;;3.15;;
22234;SDS011;11286;45.596;5.284;2022-07-10T08:10:15;5.47;;;3.33;;
22234;SDS011;11286;45.596;5.284;2022-07-10T08:12:42;6.03;;;3.50;;
22234;SDS011;11286;45.596;5.284;2022-07-10T08:15:10;4.65;;;3.10;;
22234;SDS011;11286;45.596;5.284;2022-07-10T08:17:37;4.97;;;3.40;;
22234;SDS011;11286;45.596;5.284;2022-07-10T08:20:03;7.35;;;3.30;;
22234;SDS011;11286;45.596;5.284;2022-07-10T08:22:30;7.68;;;3.58;;
22234;SDS011;11286;45.596;5.284;2022-07-10T08:24:56;3.80;;;3.40;;
22234;SDS011;11286;45.596;5.284;2022-07-10T08:27:22;3.58;;;3.28;;
22234;SDS011;11286;45.596;5.284;2022-07-10T08:29:48;4.30;;;3.25;;
22234;SDS011;11286;45.596;5.284;2022-07-10T08:32:14;6.22;;;3.40;;
22234;SDS011;11286;45.596;5.284;2022-07-10T08:34:40;4.68;;;3.40;;
22234;SDS011;11286;45.596;5.284;2022-07-10T08:37:05;3.55;;;3.25;;
22234;SDS011;11286;45.596;5.284;2022-07-10T08:39:31;4.65;;;3.45;;
22234;SDS011;11286;45.596;5.284;2022-07-10T08:41:58;5.45;;;3.30;;
22234;SDS011;11286;45.596;5.284;2022-07-10T08:44:24;4.40;;;3.00;;
22234;SDS011;11286;45.596;5.284;2022-07-10T08:46:51;4.85;;;3.67;;
22234;SDS011;11286;45.596;5.284;2022-07-10T08:49:16;5.03;;;3.67;;
22234;SDS011;11286;45.596;5.284;2022-07-10T08:54:31;4.22;;;3.30;;
22234;SDS011;11286;45.596;5.284;2022-07-10T08:56:58;4.55;;;3.20;;
22234;SDS011;11286;45.596;5.284;2022-07-10T08:59:26;4.60;;;3.35;;
22234;SDS011;11286;45.596;5.284;2022-07-10T09:01:52;4.43;;;3.25;;
22234;SDS011;11286;45.596;5.284;2022-07-10T09:04:19;4.57;;;3.22;;
22234;SDS011;11286;45.596;5.284;2022-07-10T09:06:45;5.97;;;3.35;;
22234;SDS011;11286;45.596;5.284;2022-07-10T09:09:11;4.80;;;3.65;;
22234;SDS011;11286;45.596;5.284;2022-07-10T09:11:38;3.63;;;3.30;;
22234;SDS011;11286;45.596;5.284;2022-07-10T09:14:07;4.97;;;3.25;;
22234;SDS011;11286;45.596;5.284;2022-07-10T09:16:36;4.03;;;3.13;;
22234;SDS011;11286;45.596;5.284;2022-07-10T09:19:23;4.50;;;3.50;;
22234;SDS011;11286;45.596;5.284;2022-07-10T09:22:09;3.67;;;3.03;;
22234;SDS011;11286;45.596;5.284;2022-07-10T09:24:39;4.63;;;3.50;;
22234;SDS011;11286;45.596;5.284;2022-07-10T09:27:06;4.55;;;2.92;;
22234;SDS011;11286;45.596;5.284;2022-07-10T09:29:39;3.67;;;2.97;;
22234;SDS011;11286;45.596;5.284;2022-07-10T09:32:13;5.38;;;3.05;;
22234;SDS011;11286;45.596;5.284;2022-07-10T09:34:42;3.50;;;3.13;;
22234;SDS011;11286;45.596;5.284;2022-07-10T09:39:58;5.55;;;3.20;;
22234;SDS011;11286;45.596;5.284;2022-07-10T09:42:42;3.80;;;3.40;;
22234;SDS011;11286;45.596;5.284;2022-07-10T09:47:42;5.43;;;3.60;;
22234;SDS011;11286;45.596;5.284;2022-07-10T09:52:51;4.50;;;3.03;;
22234;SDS011;11286;45.596;5.284;2022-07-10T09:55:22;5.18;;;3.28;;
22234;SDS011;11286;45.596;5.284;2022-07-10T09:57:53;2.95;;;2.72;;
22234;SDS011;11286;45.596;5.284;2022-07-10T10:00:24;4.95;;;3.28;;
22234;SDS011;11286;45.596;5.284;2022-07-10T10:02:54;4.55;;;3.38;;
22234;SDS011;11286;45.596;5.284;2022-07-10T10:05:24;4.07;;;3.40;;
22234;SDS011;11286;45.596;5.284;2022-07-10T10:07:58;5.72;;;3.40;;
22234;SDS011;11286;45.596;5.284;2022-07-10T10:10:44;4.03;;;2.85;;
22234;SDS011;11286;45.596;5.284;2022-07-10T10:13:12;5.32;;;2.88;;
22234;SDS011;11286;45.596;5.284;2022-07-10T10:15:42;4.22;;;2.80;;
22234;SDS011;11286;45.596;5.284;2022-07-10T10:18:08;3.25;;;2.95;;
22234;SDS011;11286;45.596;5.284;2022-07-10T10:20:35;6.03;;;3.13;;
22234;SDS011;11286;45.596;5.284;2022-07-10T10:23:10;3.35;;;2.90;;
22234;SDS011;11286;45.596;5.284;2022-07-10T10:25:37;4.05;;;3.10;;
22234;SDS011;11286;45.596;5.284;2022-07-10T10:28:04;3.85;;;3.10;;
22234;SDS011;11286;45.596;5.284;2022-07-10T10:30:31;3.08;;;2.70;;
22234;SDS011;11286;45.596;5.284;2022-07-10T10:32:58;5.65;;;3.00;;
22234;SDS011;11286;45.596;5.284;2022-07-10T10:38:12;4.95;;;2.92;;
22234;SDS011;11286;45.596;5.284;2022-07-10T10:40:40;5.32;;;3.00;;
22234;SDS011;11286;45.596;5.284;2022-07-10T10:45:45;3.45;;;2.70;;
22234;SDS011;11286;45.596;5.284;2022-07-10T10:48:18;3.80;;;2.90;;
22234;SDS011;11286;45.596;5.284;2022-07-10T10:53:17;3.42;;;2.85;;
22234;SDS011;11286;45.596;5.284;2022-07-10T10:58:29;3.60;;;2.90;;
22234;SDS011;11286;45.596;5.284;2022-07-10T11:06:42;6.18;;;3.45;;
22234;SDS011;11286;45.596;5.284;2022-07-10T11:09:28;3.00;;;2.70;;
22234;SDS011;11286;45.596;5.284;2022-07-10T11:14:28;3.17;;;2.80;;
22234;SDS011;11286;45.596;5.284;2022-07-10T11:16:55;4.45;;;2.80;;
22234;SDS011;11286;45.596;5.284;2022-07-10T11:19:22;4.95;;;2.50;;
22234;SDS011;11286;45.596;5.284;2022-07-10T11:21:49;3.83;;;2.83;;
22234;SDS011;11286;45.596;5.284;2022-07-10T11:24:38;5.03;;;2.85;;
22234;SDS011;11286;45.596;5.284;2022-07-10T11:29:59;5.45;;;2.70;;
22234;SDS011;11286;45.596;5.284;2022-07-10T11:32:26;2.70;;;2.45;;
22234;SDS011;11286;45.596;5.284;2022-07-10T11:34:52;3.60;;;2.60;;
22234;SDS011;11286;45.596;5.284;2022-07-10T11:37:19;4.03;;;2.60;;
22234;SDS011;11286;45.596;5.284;2022-07-10T11:39:45;3.25;;;2.53;;
22234;SDS011;11286;45.596;5.284;2022-07-10T11:42:11;4.07;;;2.47;;
22234;SDS011;11286;45.596;5.284;2022-07-10T11:44:36;2.90;;;2.70;;
22234;SDS011;11286;45.596;5.284;2022-07-10T11:47:02;2.83;;;2.58;;
22234;SDS011;11286;45.596;5.284;2022-07-10T11:49:29;3.45;;;2.83;;
22234;SDS011;11286;45.596;5.284;2022-07-10T11:52:00;4.43;;;2.45;;
22234;SDS011;11286;45.596;5.284;2022-07-10T11:54:27;4.15;;;2.80;;
22234;SDS011;11286;45.596;5.284;2022-07-10T11:56:53;3.75;;;2.60;;
22234;SDS011;11286;45.596;5.284;2022-07-10T11:59:25;2.92;;;2.50;;
22234;SDS011;11286;45.596;5.284;2022-07-10T12:01:52;3.50;;;2.47;;
22234;SDS011;11286;45.596;5.284;2022-07-10T12:04:21;3.47;;;2.17;;
22234;SDS011;11286;45.596;5.284;2022-07-10T12:06:51;2.80;;;2.40;;
22234;SDS011;11286;45.596;5.284;2022-07-10T12:09:20;4.70;;;2.58;;
22234;SDS011;11286;45.596;5.284;2022-07-10T12:14:47;2.60;;;2.40;;
22234;SDS011;11286;45.596;5.284;2022-07-10T12:17:12;2.95;;;2.25;;
22234;SDS011;11286;45.596;5.284;2022-07-10T12:19:38;2.47;;;2.28;;
22234;SDS011;11286;45.596;5.284;2022-07-10T12:22:05;2.20;;;2.00;;
22234;SDS011;11286;45.596;5.284;2022-07-10T12:24:31;3.13;;;2.53;;
22234;SDS011;11286;45.596;5.284;2022-07-10T12:26:57;2.80;;;2.60;;
22234;SDS011;11286;45.596;5.284;2022-07-10T12:29:27;3.00;;;2.40;;
22234;SDS011;11286;45.596;5.284;2022-07-10T12:31:55;3.63;;;2.22;;
22234;SDS011;11286;45.596;5.284;2022-07-10T12:34:37;2.70;;;2.47;;
22234;SDS011;11286;45.596;5.284;2022-07-10T12:37:22;3.78;;;2.30;;
22234;SDS011;11286;45.596;5.284;2022-07-10T12:39:49;4.75;;;2.13;;
22234;SDS011;11286;45.596;5.284;2022-07-10T12:42:26;4.40;;;2.35;;
22234;SDS011;11286;45.596;5.284;2022-07-10T12:44:53;3.60;;;2.83;;
22234;SDS011;11286;45.596;5.284;2022-07-10T12:47:19;3.00;;;2.20;;
22234;SDS011;11286;45.596;5.284;2022-07-10T12:52:32;4.90;;;2.10;;
22234;SDS011;11286;45.596;5.284;2022-07-10T12:57:57;5.28;;;2.40;;
22234;SDS011;11286;45.596;5.284;2022-07-10T13:08:05;2.17;;;1.90;;
22234;SDS011;11286;45.596;5.284;2022-07-10T13:10:33;2.83;;;1.98;;
22234;SDS011;11286;45.596;5.284;2022-07-10T13:13:01;2.92;;;2.22;;
22234;SDS011;11286;45.596;5.284;2022-07-10T13:15:29;3.83;;;2.17;;
22234;SDS011;11286;45.596;5.284;2022-07-10T13:17:56;3.42;;;3.08;;
22234;SDS011;11286;45.596;5.284;2022-07-10T13:20:22;3.90;;;2.50;;
22234;SDS011;11286;45.596;5.284;2022-07-10T13:22:48;3.90;;;3.03;;
22234;SDS011;11286;45.596;5.284;2022-07-10T13:25:14;4.10;;;2.25;;
22234;SDS011;11286;45.596;5.284;2022-07-10T13:27:40;5.80;;;2.88;;
22234;SDS011;11286;45.596;5.284;2022-07-10T13:30:07;4.15;;;2.50;;
22234;SDS011;11286;45.596;5.284;2022-07-10T13:32:33;4.38;;;2.75;;
22234;SDS011;11286;45.596;5.284;2022-07-10T13:34:59;3.30;;;1.95;;
22234;SDS011;11286;45.596;5.284;2022-07-10T13:37:25;3.17;;;2.58;;
22234;SDS011;11286;45.596;5.284;2022-07-10T13:39:50;2.67;;;2.13;;
22234;SDS011;11286;45.596;5.284;2022-07-10T13:42:16;3.50;;;2.28;;
22234;SDS011;11286;45.596;5.284;2022-07-10T13:44:42;3.28;;;2.42;;
22234;SDS011;11286;45.596;5.284;2022-07-10T13:47:07;2.45;;;2.22;;
22234;SDS011;11286;45.596;5.284;2022-07-10T13:49:33;5.15;;;2.10;;
22234;SDS011;11286;45.596;5.284;2022-07-10T13:51:59;3.83;;;2.22;;
22234;SDS011;11286;45.596;5.284;2022-07-10T13:54:25;3.38;;;2.58;;
22234;SDS011;11286;45.596;5.284;2022-07-10T13:56:51;4.18;;;2.25;;
22234;SDS011;11286;45.596;5.284;2022-07-10T13:59:16;3.95;;;2.33;;
22234;SDS011;11286;45.596;5.284;2022-07-10T14:01:42;3.00;;;2.60;;
22234;SDS011;11286;45.596;5.284;2022-07-10T14:04:08;2.90;;;2.45;;
22234;SDS011;11286;45.596;5.284;2022-07-10T14:06:33;3.75;;;2.60;;
22234;SDS011;11286;45.596;5.284;2022-07-10T14:08:59;2.70;;;2.28;;
22234;SDS011;11286;45.596;5.284;2022-07-10T14:11:25;4.65;;;2.15;;
22234;SDS011;11286;45.596;5.284;2022-07-10T14:13:51;3.25;;;2.30;;
22234;SDS011;11286;45.596;5.284;2022-07-10T14:16:16;2.50;;;2.30;;
22234;SDS011;11286;45.596;5.284;2022-07-10T14:18:42;2.75;;;2.25;;
22234;SDS011;11286;45.596;5.284;2022-07-10T14:21:09;2.45;;;2.25;;
22234;SDS011;11286;45.596;5.284;2022-07-10T14:23:37;3.90;;;2.95;;
22234;SDS011;11286;45.596;5.284;2022-07-10T14:26:07;3.55;;;2.17;;
22234;SDS011;11286;45.596;5.284;2022-07-10T14:28:33;2.33;;;2.13;;
22234;SDS011;11286;45.596;5.284;2022-07-10T14:31:02;3.17;;;2.70;;
22234;SDS011;11286;45.596;5.284;2022-07-10T14:33:30;3.22;;;2.30;;
22234;SDS011;11286;45.596;5.284;2022-07-10T14:35:57;4.15;;;2.30;;
22234;SDS011;11286;45.596;5.284;2022-07-10T14:38:22;4.80;;;2.30;;
22234;SDS011;11286;45.596;5.284;2022-07-10T14:40:48;3.00;;;2.70;;
22234;SDS011;11286;45.596;5.284;2022-07-10T14:43:16;4.20;;;2.50;;
22234;SDS011;11286;45.596;5.284;2022-07-10T14:45:42;2.75;;;2.42;;
22234;SDS011;11286;45.596;5.284;2022-07-10T14:48:08;2.97;;;2.20;;
22234;SDS011;11286;45.596;5.284;2022-07-10T14:50:33;3.17;;;2.70;;
22234;SDS011;11286;45.596;5.284;2022-07-10T14:52:59;3.58;;;2.50;;
22234;SDS011;11286;45.596;5.284;2022-07-10T14:55:25;3.05;;;2.55;;
22234;SDS011;11286;45.596;5.284;2022-07-10T14:57:50;3.78;;;2.47;;
22234;SDS011;11286;45.596;5.284;2022-07-10T15:00:16;4.15;;;2.30;;
22234;SDS011;11286;45.596;5.284;2022-07-10T15:02:43;2.40;;;2.20;;
22234;SDS011;11286;45.596;5.284;2022-07-10T15:05:09;3.33;;;2.60;;
22234;SDS011;11286;45.596;5.284;2022-07-10T15:07:35;2.72;;;2.35;;
22234;SDS011;11286;45.596;5.284;2022-07-10T15:10:00;2.83;;;2.55;;
22234;SDS011;11286;45.596;5.284;2022-07-10T15:12:26;3.92;;;2.58;;
22234;SDS011;11286;45.596;5.284;2022-07-10T15:14:51;3.13;;;2.40;;
22234;SDS011;11286;45.596;5.284;2022-07-10T15:17:18;2.80;;;2.35;;
22234;SDS011;11286;45.596;5.284;2022-07-10T15:19:44;5.40;;;2.50;;
22234;SDS011;11286;45.596;5.284;2022-07-10T15:22:09;4.05;;;2.50;;
22234;SDS011;11286;45.596;5.284;2022-07-10T15:24:35;2.63;;;2.42;;
22234;SDS011;11286;45.596;5.284;2022-07-10T15:27:01;5.03;;;2.40;;
22234;SDS011;11286;45.596;5.284;2022-07-10T15:29:26;4.10;;;2.80;;
22234;SDS011;11286;45.596;5.284;2022-07-10T15:31:52;2.85;;;2.58;;
22234;SDS011;11286;45.596;5.284;2022-07-10T15:34:18;2.95;;;2.55;;
22234;SDS011;11286;45.596;5.284;2022-07-10T15:36:44;5.72;;;2.60;;